sensor_id;sensor_type;location;lat;lon;timestamp;temperature;humidity
20750;DHT22;10535;50.664;4.564;2022-12-18T08:55:30;-6.40;99.90
20750;DHT22;10535;50.664;4.564;2022-12-18T08:58:17;-6.40;99.90
20750;DHT22;10535;50.664;4.564;2022-12-18T09:01:19;-5.90;99.90
20750;DHT22;10535;50.664;4.564;2022-12-18T09:04:16;-5.30;99.90
20750;DHT22;10535;50.664;4.564;2022-12-18T09:06:48;-4.80;99.90
20750;DHT22;10535;50.664;4.564;2022-12-18T09:09:16;-4.60;99.90
20750;DHT22;10535;50.664;4.564;2022-12-18T09:11:43;-4.30;99.90
20750;DHT22;10535;50.664;4.564;2022-12-18T09:14:10;-4.00;99.90
20750;DHT22;10535;50.664;4.564;2022-12-18T09:16:36;-3.50;99.90
20750;DHT22;10535;50.664;4.564;2022-12-18T09:19:03;-3.30;99.90
20750;DHT22;10535;50.664;4.564;2022-12-18T09:21:34;-3.00;99.90
20750;DHT22;10535;50.664;4.564;2022-12-18T09:24:00;-2.80;99.90
20750;DHT22;10535;50.664;4.564;2022-12-18T09:26:26;-2.70;99.90
20750;DHT22;10535;50.664;4.564;2022-12-18T09:28:52;-2.60;99.90
20750;DHT22;10535;50.664;4.564;2022-12-18T09:31:21;-2.40;99.90
20750;DHT22;10535;50.664;4.564;2022-12-18T09:33:46;-2.60;99.90
20750;DHT22;10535;50.664;4.564;2022-12-18T09:36:14;-2.50;99.90
20750;DHT22;10535;50.664;4.564;2022-12-18T09:38:40;-2.30;99.90
20750;DHT22;10535;50.664;4.564;2022-12-18T09:41:30;-2.20;99.90
20750;DHT22;10535;50.664;4.564;2022-12-18T09:44:30;-2.20;99.90
20750;DHT22;10535;50.664;4.564;2022-12-18T09:49:35;-1.70;99.90
20750;DHT22;10535;50.664;4.564;2022-12-18T09:52:26;-1.60;99.90
20750;DHT22;10535;50.664;4.564;2022-12-18T09:54:57;-1.50;99.90
20750;DHT22;10535;50.664;4.564;2022-12-18T09:57:25;-1.30;99.90
20750;DHT22;10535;50.664;4.564;2022-12-18T10:00:23;-1.20;99.90
20750;DHT22;10535;50.664;4.564;2022-12-18T10:03:16;-1.00;99.90
20750;DHT22;10535;50.664;4.564;2022-12-18T10:09:11;-0.90;99.90
20750;DHT22;10535;50.664;4.564;2022-12-18T10:15:11;-0.70;99.90
20750;DHT22;10535;50.664;4.564;2022-12-18T10:17:56;-0.50;99.90
20750;DHT22;10535;50.664;4.564;2022-12-18T10:20:38;-0.60;99.90
20750;DHT22;10535;50.664;4.564;2022-12-18T10:23:21;-0.60;99.90
20750;DHT22;10535;50.664;4.564;2022-12-18T10:26:07;-0.50;99.90
20750;DHT22;10535;50.664;4.564;2022-12-18T10:28:36;-0.30;99.90
20750;DHT22;10535;50.664;4.564;2022-12-18T10:31:29;-0.20;99.90
20750;DHT22;10535;50.664;4.564;2022-12-18T10:33:54;-0.20;99.90
20750;DHT22;10535;50.664;4.564;2022-12-18T10:36:24;-0.10;99.90
20750;DHT22;10535;50.664;4.564;2022-12-18T10:38:50;0.00;99.90
20750;DHT22;10535;50.664;4.564;2022-12-18T10:41:36;0.00;99.90
20750;DHT22;10535;50.664;4.564;2022-12-18T10:44:21;0.00;99.90
20750;DHT22;10535;50.664;4.564;2022-12-18T10:47:02;0.00;99.90
20750;DHT22;10535;50.664;4.564;2022-12-18T10:49:32;0.00;99.90
20750;DHT22;10535;50.664;4.564;2022-12-18T10:52:29;-0.10;99.90
20750;DHT22;10535;50.664;4.564;2022-12-18T10:54:59;0.10;99.90
20750;DHT22;10535;50.664;4.564;2022-12-18T10:57:40;0.20;99.90
20750;DHT22;10535;50.664;4.564;2022-12-18T11:00:28;0.20;99.90
20750;DHT22;10535;50.664;4.564;2022-12-18T11:03:28;0.40;99.90
20750;DHT22;10535;50.664;4.564;2022-12-18T11:06:07;0.70;99.90
20750;DHT22;10535;50.664;4.564;2022-12-18T11:08:33;0.70;99.90
20750;DHT22;10535;50.664;4.564;2022-12-18T11:10:59;0.60;99.90
20750;DHT22;10535;50.664;4.564;2022-12-18T11:13:28;0.50;99.90
20750;DHT22;10535;50.664;4.564;2022-12-18T11:15:58;0.50;99.90
20750;DHT22;10535;50.664;4.564;2022-12-18T11:18:33;0.50;99.90
20750;DHT22;10535;50.664;4.564;2022-12-18T11:21:09;0.60;99.90
20750;DHT22;10535;50.664;4.564;2022-12-18T11:23:37;0.50;99.90
20750;DHT22;10535;50.664;4.564;2022-12-18T11:26:10;0.60;99.90
20750;DHT22;10535;50.664;4.564;2022-12-18T11:31:27;0.60;99.90
20750;DHT22;10535;50.664;4.564;2022-12-18T11:34:19;0.50;99.90
20750;DHT22;10535;50.664;4.564;2022-12-18T11:36:45;0.60;99.90
20750;DHT22;10535;50.664;4.564;2022-12-18T11:39:30;0.50;99.90
20750;DHT22;10535;50.664;4.564;2022-12-18T11:42:09;0.30;99.90
20750;DHT22;10535;50.664;4.564;2022-12-18T11:48:09;0.50;99.90
20750;DHT22;10535;50.664;4.564;2022-12-18T11:50:58;0.50;99.90
20750;DHT22;10535;50.664;4.564;2022-12-18T11:53:26;0.50;99.90
20750;DHT22;10535;50.664;4.564;2022-12-18T12:01:50;0.80;99.90
20750;DHT22;10535;50.664;4.564;2022-12-18T12:04:28;0.80;99.90
20750;DHT22;10535;50.664;4.564;2022-12-18T12:07:04;0.90;99.90
20750;DHT22;10535;50.664;4.564;2022-12-18T12:17:53;1.10;99.90
20750;DHT22;10535;50.664;4.564;2022-12-18T12:20:28;1.00;99.90
20750;DHT22;10535;50.664;4.564;2022-12-18T12:25:51;1.20;99.90
20750;DHT22;10535;50.664;4.564;2022-12-18T12:31:45;1.10;99.90
20750;DHT22;10535;50.664;4.564;2022-12-18T12:34:18;1.30;99.90
20750;DHT22;10535;50.664;4.564;2022-12-18T12:37:19;1.30;99.90
20750;DHT22;10535;50.664;4.564;2022-12-18T12:39:47;1.40;99.90
20750;DHT22;10535;50.664;4.564;2022-12-18T12:45:22;1.40;99.90
20750;DHT22;10535;50.664;4.564;2022-12-18T12:48:10;1.40;99.90
20750;DHT22;10535;50.664;4.564;2022-12-18T12:50:41;1.40;99.90
20750;DHT22;10535;50.664;4.564;2022-12-18T12:53:13;1.40;99.90
20750;DHT22;10535;50.664;4.564;2022-12-18T12:55:43;1.40;99.90
20750;DHT22;10535;50.664;4.564;2022-12-18T13:00:53;1.30;99.90
20750;DHT22;10535;50.664;4.564;2022-12-18T13:06:19;1.00;99.90
20750;DHT22;10535;50.664;4.564;2022-12-18T13:09:00;1.10;99.90
20750;DHT22;10535;50.664;4.564;2022-12-18T13:11:46;1.20;99.90
20750;DHT22;10535;50.664;4.564;2022-12-18T13:14:37;1.20;99.90
20750;DHT22;10535;50.664;4.564;2022-12-18T13:20:04;1.10;99.90
20750;DHT22;10535;50.664;4.564;2022-12-18T13:40:56;1.50;99.90
20750;DHT22;10535;50.664;4.564;2022-12-18T13:43:31;1.40;99.90
20750;DHT22;10535;50.664;4.564;2022-12-18T13:46:21;1.40;99.90
20750;DHT22;10535;50.664;4.564;2022-12-18T13:51:23;1.40;99.90
20750;DHT22;10535;50.664;4.564;2022-12-18T13:54:01;1.70;99.90
20750;DHT22;10535;50.664;4.564;2022-12-18T13:56:32;1.40;99.90
20750;DHT22;10535;50.664;4.564;2022-12-18T14:01:46;1.20;99.90
20750;DHT22;10535;50.664;4.564;2022-12-18T14:06:44;1.20;99.90
20750;DHT22;10535;50.664;4.564;2022-12-18T14:22:20;1.40;99.90
20750;DHT22;10535;50.664;4.564;2022-12-18T14:24:47;2.10;99.90
20750;DHT22;10535;50.664;4.564;2022-12-18T14:27:21;2.00;99.90
20750;DHT22;10535;50.664;4.564;2022-12-18T14:29:48;2.00;99.90
20750;DHT22;10535;50.664;4.564;2022-12-18T14:32:19;2.00;99.90
20750;DHT22;10535;50.664;4.564;2022-12-18T14:37:15;1.90;99.90
20750;DHT22;10535;50.664;4.564;2022-12-18T14:39:59;2.00;99.90
20750;DHT22;10535;50.664;4.564;2022-12-18T14:42:27;1.80;99.90
20750;DHT22;10535;50.664;4.564;2022-12-18T14:47:58;1.80;99.90
20750;DHT22;10535;50.664;4.564;2022-12-18T14:50:24;1.80;99.90
20750;DHT22;10535;50.664;4.564;2022-12-18T14:52:50;1.80;99.90
20750;DHT22;10535;50.664;4.564;2022-12-18T14:55:21;1.70;99.90
20750;DHT22;10535;50.664;4.564;2022-12-18T14:57:51;1.60;99.90
20750;DHT22;10535;50.664;4.564;2022-12-18T15:00:19;1.60;99.90
20750;DHT22;10535;50.664;4.564;2022-12-18T15:02:51;1.70;99.90
20750;DHT22;10535;50.664;4.564;2022-12-18T15:05:24;1.60;99.90
20750;DHT22;10535;50.664;4.564;2022-12-18T15:07:52;1.70;99.90
20750;DHT22;10535;50.664;4.564;2022-12-18T15:20:54;1.50;99.90
20750;DHT22;10535;50.664;4.564;2022-12-18T15:26:14;1.50;99.90
20750;DHT22;10535;50.664;4.564;2022-12-18T15:28:56;1.50;99.90
20750;DHT22;10535;50.664;4.564;2022-12-18T15:31:31;1.30;99.90
20750;DHT22;10535;50.664;4.564;2022-12-18T15:34:19;1.30;99.90
20750;DHT22;10535;50.664;4.564;2022-12-18T15:36:51;1.30;99.90
20750;DHT22;10535;50.664;4.564;2022-12-18T15:39:24;1.10;99.90
20750;DHT22;10535;50.664;4.564;2022-12-18T15:41:55;1.20;99.90
20750;DHT22;10535;50.664;4.564;2022-12-18T15:44:39;1.10;99.90
20750;DHT22;10535;50.664;4.564;2022-12-18T15:47:10;1.20;99.90
20750;DHT22;10535;50.664;4.564;2022-12-18T15:49:37;1.50;99.90
20750;DHT22;10535;50.664;4.564;2022-12-18T15:52:03;1.20;99.90
20750;DHT22;10535;50.664;4.564;2022-12-18T15:54:29;1.40;99.90
20750;DHT22;10535;50.664;4.564;2022-12-18T15:57:14;1.40;99.90
20750;DHT22;10535;50.664;4.564;2022-12-18T15:59:58;1.40;99.90
20750;DHT22;10535;50.664;4.564;2022-12-18T16:02:24;1.60;99.90
20750;DHT22;10535;50.664;4.564;2022-12-18T16:04:52;1.50;99.90
20750;DHT22;10535;50.664;4.564;2022-12-18T16:07:38;1.60;99.90
20750;DHT22;10535;50.664;4.564;2022-12-18T16:10:26;1.40;99.90
20750;DHT22;10535;50.664;4.564;2022-12-18T16:12:52;1.30;99.90
20750;DHT22;10535;50.664;4.564;2022-12-18T16:15:18;1.50;99.90
20750;DHT22;10535;50.664;4.564;2022-12-18T16:18:02;1.50;99.90
20750;DHT22;10535;50.664;4.564;2022-12-18T16:20:29;1.40;99.90
20750;DHT22;10535;50.664;4.564;2022-12-18T16:23:16;1.40;99.90
20750;DHT22;10535;50.664;4.564;2022-12-18T16:26:02;1.40;99.90
20750;DHT22;10535;50.664;4.564;2022-12-18T16:28:36;1.30;99.90
20750;DHT22;10535;50.664;4.564;2022-12-18T16:31:01;1.40;99.90
20750;DHT22;10535;50.664;4.564;2022-12-18T16:33:30;1.50;99.90
20750;DHT22;10535;50.664;4.564;2022-12-18T16:39:17;1.30;99.90
20750;DHT22;10535;50.664;4.564;2022-12-18T16:41:55;1.50;99.90
20750;DHT22;10535;50.664;4.564;2022-12-18T16:44:22;1.30;99.90
20750;DHT22;10535;50.664;4.564;2022-12-18T16:46:47;1.50;99.90
20750;DHT22;10535;50.664;4.564;2022-12-18T16:49:15;1.30;99.90
20750;DHT22;10535;50.664;4.564;2022-12-18T16:51:41;1.30;99.90
20750;DHT22;10535;50.664;4.564;2022-12-18T16:54:07;1.60;99.90
20750;DHT22;10535;50.664;4.564;2022-12-18T16:56:34;1.40;99.90
20750;DHT22;10535;50.664;4.564;2022-12-18T16:59:03;1.30;99.90
20750;DHT22;10535;50.664;4.564;2022-12-18T17:01:31;1.60;99.90
20750;DHT22;10535;50.664;4.564;2022-12-18T17:04:01;1.40;99.90
20750;DHT22;10535;50.664;4.564;2022-12-18T17:06:29;1.70;99.90
20750;DHT22;10535;50.664;4.564;2022-12-18T17:08:56;1.60;99.90
20750;DHT22;10535;50.664;4.564;2022-12-18T17:11:23;1.40;99.90
20750;DHT22;10535;50.664;4.564;2022-12-18T17:13:50;1.70;99.90
20750;DHT22;10535;50.664;4.564;2022-12-18T17:16:15;1.80;99.90
20750;DHT22;10535;50.664;4.564;2022-12-18T17:18:41;1.70;99.90
20750;DHT22;10535;50.664;4.564;2022-12-18T17:21:10;1.60;99.90
20750;DHT22;10535;50.664;4.564;2022-12-18T17:23:37;1.60;99.90
20750;DHT22;10535;50.664;4.564;2022-12-18T17:26:04;1.60;99.90
20750;DHT22;10535;50.664;4.564;2022-12-18T17:28:32;1.60;99.90
20750;DHT22;10535;50.664;4.564;2022-12-18T17:31:19;1.70;99.90
20750;DHT22;10535;50.664;4.564;2022-12-18T17:33:47;1.70;99.90
20750;DHT22;10535;50.664;4.564;2022-12-18T17:36:13;1.60;99.90
20750;DHT22;10535;50.664;4.564;2022-12-18T17:38:51;1.60;99.90
20750;DHT22;10535;50.664;4.564;2022-12-18T17:41:26;1.70;99.90
20750;DHT22;10535;50.664;4.564;2022-12-18T17:44:26;1.70;99.90
20750;DHT22;10535;50.664;4.564;2022-12-18T18:11:11;1.50;99.90
20750;DHT22;10535;50.664;4.564;2022-12-18T18:14:15;1.70;99.90
20750;DHT22;10535;50.664;4.564;2022-12-18T18:16:47;1.50;99.90
20750;DHT22;10535;50.664;4.564;2022-12-18T18:19:18;1.40;99.90
20750;DHT22;10535;50.664;4.564;2022-12-18T18:21:49;1.60;99.90
20750;DHT22;10535;50.664;4.564;2022-12-18T18:24:18;1.50;99.90
20750;DHT22;10535;50.664;4.564;2022-12-18T18:26:44;1.80;99.90
20750;DHT22;10535;50.664;4.564;2022-12-18T18:29:17;1.50;99.90
20750;DHT22;10535;50.664;4.564;2022-12-18T18:31:46;1.60;99.90
20750;DHT22;10535;50.664;4.564;2022-12-18T18:34:42;1.50;99.90
20750;DHT22;10535;50.664;4.564;2022-12-18T18:37:35;1.70;99.90
20750;DHT22;10535;50.664;4.564;2022-12-18T18:40:02;1.40;99.90
20750;DHT22;10535;50.664;4.564;2022-12-18T18:42:36;1.70;99.90
20750;DHT22;10535;50.664;4.564;2022-12-18T18:45:31;1.70;99.90
20750;DHT22;10535;50.664;4.564;2022-12-18T18:48:00;1.70;99.90
20750;DHT22;10535;50.664;4.564;2022-12-18T18:51:00;1.60;99.90
20750;DHT22;10535;50.664;4.564;2022-12-18T18:53:57;1.60;99.90
20750;DHT22;10535;50.664;4.564;2022-12-18T18:56:27;1.80;99.90
20750;DHT22;10535;50.664;4.564;2022-12-18T18:58:56;1.80;99.90
20750;DHT22;10535;50.664;4.564;2022-12-18T19:01:24;1.90;99.90
20750;DHT22;10535;50.664;4.564;2022-12-18T19:06:41;1.80;99.90
20750;DHT22;10535;50.664;4.564;2022-12-18T19:09:34;2.10;99.90
20750;DHT22;10535;50.664;4.564;2022-12-18T19:12:02;2.00;99.90
20750;DHT22;10535;50.664;4.564;2022-12-18T19:14:47;2.00;99.90
20750;DHT22;10535;50.664;4.564;2022-12-18T19:17:14;1.90;99.90
20750;DHT22;10535;50.664;4.564;2022-12-18T19:19:44;2.10;99.90
20750;DHT22;10535;50.664;4.564;2022-12-18T19:22:11;1.90;99.90
20750;DHT22;10535;50.664;4.564;2022-12-18T19:24:42;2.30;99.90
20750;DHT22;10535;50.664;4.564;2022-12-18T19:27:15;2.10;99.90
20750;DHT22;10535;50.664;4.564;2022-12-18T19:29:54;2.10;99.90
20750;DHT22;10535;50.664;4.564;2022-12-18T19:32:22;2.00;99.90
20750;DHT22;10535;50.664;4.564;2022-12-18T19:35:08;2.10;99.90
20750;DHT22;10535;50.664;4.564;2022-12-18T19:37:34;2.10;99.90
20750;DHT22;10535;50.664;4.564;2022-12-18T19:40:01;2.20;99.90
20750;DHT22;10535;50.664;4.564;2022-12-18T19:42:34;2.00;99.90
20750;DHT22;10535;50.664;4.564;2022-12-18T19:45:03;2.10;99.90
20750;DHT22;10535;50.664;4.564;2022-12-18T19:47:29;1.90;99.90
20750;DHT22;10535;50.664;4.564;2022-12-18T19:49:55;2.20;99.90
20750;DHT22;10535;50.664;4.564;2022-12-18T19:52:26;2.20;99.90
20750;DHT22;10535;50.664;4.564;2022-12-18T19:57:51;2.00;99.90
20750;DHT22;10535;50.664;4.564;2022-12-18T20:00:17;2.00;99.90
20750;DHT22;10535;50.664;4.564;2022-12-18T20:02:43;2.10;99.90
20750;DHT22;10535;50.664;4.564;2022-12-18T20:05:12;2.20;99.90
20750;DHT22;10535;50.664;4.564;2022-12-18T20:07:50;2.00;99.90
20750;DHT22;10535;50.664;4.564;2022-12-18T20:10:18;2.20;99.90
20750;DHT22;10535;50.664;4.564;2022-12-18T20:12:46;2.30;99.90
20750;DHT22;10535;50.664;4.564;2022-12-18T20:15:28;2.10;99.90
20750;DHT22;10535;50.664;4.564;2022-12-18T20:20:38;2.10;99.90
20750;DHT22;10535;50.664;4.564;2022-12-18T20:28:34;2.00;99.90
20750;DHT22;10535;50.664;4.564;2022-12-18T20:31:18;1.90;99.90
20750;DHT22;10535;50.664;4.564;2022-12-18T20:33:44;2.30;99.90
20750;DHT22;10535;50.664;4.564;2022-12-18T20:36:17;2.10;99.90
20750;DHT22;10535;50.664;4.564;2022-12-18T20:49:06;2.20;99.90
20750;DHT22;10535;50.664;4.564;2022-12-18T22:00:00;2.90;99.90
20750;DHT22;10535;50.664;4.564;2022-12-18T22:02:43;3.00;99.90
20750;DHT22;10535;50.664;4.564;2022-12-18T22:05:12;2.90;99.90
20750;DHT22;10535;50.664;4.564;2022-12-18T22:08:11;2.90;99.90
20750;DHT22;10535;50.664;4.564;2022-12-18T22:11:23;3.20;99.90
20750;DHT22;10535;50.664;4.564;2022-12-18T22:22:20;3.00;99.90
20750;DHT22;10535;50.664;4.564;2022-12-18T22:45:34;2.90;99.90
20750;DHT22;10535;50.664;4.564;2022-12-18T22:47:59;3.00;99.90
20750;DHT22;10535;50.664;4.564;2022-12-18T22:50:25;3.20;99.90
20750;DHT22;10535;50.664;4.564;2022-12-18T22:52:50;3.10;99.90
20750;DHT22;10535;50.664;4.564;2022-12-18T22:55:16;3.30;99.90
20750;DHT22;10535;50.664;4.564;2022-12-18T23:00:17;3.10;99.90
20750;DHT22;10535;50.664;4.564;2022-12-18T23:02:43;3.10;99.90
20750;DHT22;10535;50.664;4.564;2022-12-18T23:05:08;3.30;99.90
20750;DHT22;10535;50.664;4.564;2022-12-18T23:07:34;3.30;99.90
20750;DHT22;10535;50.664;4.564;2022-12-18T23:09:59;3.50;99.90
20750;DHT22;10535;50.664;4.564;2022-12-18T23:12:25;3.60;99.90
20750;DHT22;10535;50.664;4.564;2022-12-18T23:14:51;3.30;99.90
20750;DHT22;10535;50.664;4.564;2022-12-18T23:17:16;3.40;99.90
20750;DHT22;10535;50.664;4.564;2022-12-18T23:19:42;3.50;99.90
20750;DHT22;10535;50.664;4.564;2022-12-18T23:22:08;3.60;99.90
20750;DHT22;10535;50.664;4.564;2022-12-18T23:24:34;3.60;99.90
20750;DHT22;10535;50.664;4.564;2022-12-18T23:26:59;3.80;99.90
20750;DHT22;10535;50.664;4.564;2022-12-18T23:29:25;3.60;99.90
20750;DHT22;10535;50.664;4.564;2022-12-18T23:31:50;3.70;99.90
20750;DHT22;10535;50.664;4.564;2022-12-18T23:34:17;3.80;99.90
20750;DHT22;10535;50.664;4.564;2022-12-18T23:36:43;3.80;99.90
20750;DHT22;10535;50.664;4.564;2022-12-18T23:39:09;3.90;99.90
20750;DHT22;10535;50.664;4.564;2022-12-18T23:41:35;3.90;99.90
20750;DHT22;10535;50.664;4.564;2022-12-18T23:44:02;4.00;99.90
20750;DHT22;10535;50.664;4.564;2022-12-18T23:46:30;4.00;99.90
20750;DHT22;10535;50.664;4.564;2022-12-18T23:48:57;4.20;99.90
20750;DHT22;10535;50.664;4.564;2022-12-18T23:51:24;4.00;99.90
20750;DHT22;10535;50.664;4.564;2022-12-18T23:54:00;4.10;99.90
20750;DHT22;10535;50.664;4.564;2022-12-18T23:56:28;4.20;99.90
20750;DHT22;10535;50.664;4.564;2022-12-18T23:58:54;4.20;99.90
